sensor_id;sensor_type;location;lat;lon;timestamp;P1;durP1;ratioP1;P2;durP2;ratioP2
68108;SDS011;54893;49.864;19.084;2022-07-19T00:04:05;8.77;;;3.70;;
68108;SDS011;54893;49.864;19.084;2022-07-19T00:09:06;8.17;;;3.80;;
68108;SDS011;54893;49.864;19.084;2022-07-19T00:14:06;9.30;;;3.70;;
68108;SDS011;54893;49.864;19.084;2022-07-19T00:19:07;7.80;;;3.17;;
68108;SDS011;54893;49.864;19.084;2022-07-19T00:24:07;9.13;;;3.57;;
68108;SDS011;54893;49.864;19.084;2022-07-19T00:29:08;6.13;;;2.97;;
68108;SDS011;54893;49.864;19.084;2022-07-19T00:34:08;8.03;;;2.90;;
68108;SDS011;54893;49.864;19.084;2022-07-19T00:39:09;7.17;;;3.00;;
68108;SDS011;54893;49.864;19.084;2022-07-19T00:44:09;7.80;;;3.70;;
68108;SDS011;54893;49.864;19.084;2022-07-19T00:49:10;8.98;;;4.05;;
68108;SDS011;54893;49.864;19.084;2022-07-19T00:54:11;10.23;;;3.83;;
68108;SDS011;54893;49.864;19.084;2022-07-19T00:59:12;8.50;;;4.27;;
68108;SDS011;54893;49.864;19.084;2022-07-19T01:04:13;10.02;;;4.32;;
68108;SDS011;54893;49.864;19.084;2022-07-19T01:09:13;10.13;;;4.00;;
68108;SDS011;54893;49.864;19.084;2022-07-19T01:14:14;9.80;;;4.00;;
68108;SDS011;54893;49.864;19.084;2022-07-19T01:19:14;9.03;;;3.97;;
68108;SDS011;54893;49.864;19.084;2022-07-19T01:24:15;8.00;;;3.80;;
68108;SDS011;54893;49.864;19.084;2022-07-19T01:29:15;9.53;;;3.97;;
68108;SDS011;54893;49.864;19.084;2022-07-19T01:34:16;9.27;;;4.13;;
68108;SDS011;54893;49.864;19.084;2022-07-19T01:39:16;9.67;;;3.70;;
68108;SDS011;54893;49.864;19.084;2022-07-19T01:44:16;8.63;;;3.80;;
68108;SDS011;54893;49.864;19.084;2022-07-19T01:49:17;9.70;;;3.93;;
68108;SDS011;54893;49.864;19.084;2022-07-19T01:54:17;8.33;;;4.10;;
68108;SDS011;54893;49.864;19.084;2022-07-19T01:59:17;9.18;;;3.58;;
68108;SDS011;54893;49.864;19.084;2022-07-19T02:04:18;8.23;;;3.40;;
68108;SDS011;54893;49.864;19.084;2022-07-19T02:09:18;8.93;;;4.00;;
68108;SDS011;54893;49.864;19.084;2022-07-19T02:14:18;11.57;;;3.60;;
68108;SDS011;54893;49.864;19.084;2022-07-19T02:19:19;8.70;;;3.90;;
68108;SDS011;54893;49.864;19.084;2022-07-19T02:24:21;13.32;;;3.90;;
68108;SDS011;54893;49.864;19.084;2022-07-19T02:29:21;13.40;;;3.80;;
68108;SDS011;54893;49.864;19.084;2022-07-19T02:34:21;10.13;;;3.73;;
68108;SDS011;54893;49.864;19.084;2022-07-19T02:39:22;9.73;;;4.10;;
68108;SDS011;54893;49.864;19.084;2022-07-19T02:44:22;8.40;;;3.77;;
68108;SDS011;54893;49.864;19.084;2022-07-19T02:49:23;9.63;;;4.27;;
68108;SDS011;54893;49.864;19.084;2022-07-19T02:54:23;9.70;;;4.03;;
68108;SDS011;54893;49.864;19.084;2022-07-19T02:59:23;8.30;;;4.07;;
68108;SDS011;54893;49.864;19.084;2022-07-19T03:04:24;8.87;;;4.27;;
68108;SDS011;54893;49.864;19.084;2022-07-19T03:09:24;9.73;;;4.20;;
68108;SDS011;54893;49.864;19.084;2022-07-19T03:14:24;10.63;;;4.10;;
68108;SDS011;54893;49.864;19.084;2022-07-19T03:19:27;10.20;;;4.53;;
68108;SDS011;54893;49.864;19.084;2022-07-19T03:24:28;10.07;;;4.40;;
68108;SDS011;54893;49.864;19.084;2022-07-19T03:29:28;10.27;;;4.23;;
68108;SDS011;54893;49.864;19.084;2022-07-19T03:34:28;11.60;;;5.40;;
68108;SDS011;54893;49.864;19.084;2022-07-19T03:39:29;11.60;;;4.33;;
68108;SDS011;54893;49.864;19.084;2022-07-19T03:44:29;13.90;;;4.80;;
68108;SDS011;54893;49.864;19.084;2022-07-19T03:49:29;8.57;;;4.40;;
68108;SDS011;54893;49.864;19.084;2022-07-19T03:54:30;9.53;;;4.43;;
68108;SDS011;54893;49.864;19.084;2022-07-19T03:59:30;8.73;;;4.37;;
68108;SDS011;54893;49.864;19.084;2022-07-19T04:04:30;9.43;;;4.30;;
68108;SDS011;54893;49.864;19.084;2022-07-19T04:09:31;9.40;;;4.00;;
68108;SDS011;54893;49.864;19.084;2022-07-19T04:14:31;8.80;;;3.67;;
68108;SDS011;54893;49.864;19.084;2022-07-19T04:19:31;9.07;;;3.80;;
68108;SDS011;54893;49.864;19.084;2022-07-19T04:24:32;9.77;;;3.73;;
68108;SDS011;54893;49.864;19.084;2022-07-19T04:29:32;83.73;;;9.13;;
68108;SDS011;54893;49.864;19.084;2022-07-19T04:34:33;22.93;;;4.93;;
68108;SDS011;54893;49.864;19.084;2022-07-19T04:39:33;10.53;;;4.03;;
68108;SDS011;54893;49.864;19.084;2022-07-19T04:44:33;12.60;;;4.23;;
68108;SDS011;54893;49.864;19.084;2022-07-19T04:49:35;9.73;;;3.90;;
68108;SDS011;54893;49.864;19.084;2022-07-19T04:54:35;8.50;;;3.83;;
68108;SDS011;54893;49.864;19.084;2022-07-19T04:59:35;19.33;;;4.47;;
68108;SDS011;54893;49.864;19.084;2022-07-19T05:04:36;7.90;;;4.27;;
68108;SDS011;54893;49.864;19.084;2022-07-19T05:09:36;9.30;;;4.40;;
68108;SDS011;54893;49.864;19.084;2022-07-19T05:14:37;8.63;;;4.27;;
68108;SDS011;54893;49.864;19.084;2022-07-19T05:19:37;11.33;;;3.93;;
68108;SDS011;54893;49.864;19.084;2022-07-19T05:24:37;8.03;;;3.90;;
68108;SDS011;54893;49.864;19.084;2022-07-19T05:29:38;10.63;;;4.50;;
68108;SDS011;54893;49.864;19.084;2022-07-19T05:34:38;9.43;;;4.33;;
68108;SDS011;54893;49.864;19.084;2022-07-19T05:39:39;10.07;;;4.20;;
68108;SDS011;54893;49.864;19.084;2022-07-19T05:44:39;11.60;;;4.07;;
68108;SDS011;54893;49.864;19.084;2022-07-19T05:49:39;9.73;;;4.60;;
68108;SDS011;54893;49.864;19.084;2022-07-19T05:54:40;12.07;;;4.80;;
68108;SDS011;54893;49.864;19.084;2022-07-19T05:59:40;11.90;;;4.20;;
68108;SDS011;54893;49.864;19.084;2022-07-19T06:04:41;9.93;;;4.40;;
68108;SDS011;54893;49.864;19.084;2022-07-19T06:09:41;9.37;;;3.90;;
68108;SDS011;54893;49.864;19.084;2022-07-19T06:14:41;12.73;;;4.07;;
68108;SDS011;54893;49.864;19.084;2022-07-19T06:19:42;8.80;;;3.73;;
68108;SDS011;54893;49.864;19.084;2022-07-19T06:24:42;9.20;;;3.77;;
68108;SDS011;54893;49.864;19.084;2022-07-19T06:29:42;11.67;;;3.60;;
68108;SDS011;54893;49.864;19.084;2022-07-19T06:34:43;12.53;;;3.90;;
68108;SDS011;54893;49.864;19.084;2022-07-19T06:39:43;8.75;;;3.42;;
68108;SDS011;54893;49.864;19.084;2022-07-19T06:44:43;7.13;;;3.10;;
68108;SDS011;54893;49.864;19.084;2022-07-19T06:49:44;6.53;;;3.30;;
68108;SDS011;54893;49.864;19.084;2022-07-19T06:54:44;8.35;;;3.65;;
68108;SDS011;54893;49.864;19.084;2022-07-19T06:59:44;6.70;;;3.10;;
68108;SDS011;54893;49.864;19.084;2022-07-19T07:04:45;6.97;;;3.67;;
68108;SDS011;54893;49.864;19.084;2022-07-19T07:09:45;6.27;;;2.90;;
68108;SDS011;54893;49.864;19.084;2022-07-19T07:14:45;8.60;;;2.93;;
68108;SDS011;54893;49.864;19.084;2022-07-19T07:19:46;5.60;;;2.57;;
68108;SDS011;54893;49.864;19.084;2022-07-19T07:24:46;8.87;;;3.13;;
68108;SDS011;54893;49.864;19.084;2022-07-19T07:29:47;4.83;;;2.30;;
68108;SDS011;54893;49.864;19.084;2022-07-19T07:34:47;8.37;;;2.90;;
68108;SDS011;54893;49.864;19.084;2022-07-19T07:39:48;9.30;;;2.80;;
68108;SDS011;54893;49.864;19.084;2022-07-19T07:44:49;6.77;;;2.50;;
68108;SDS011;54893;49.864;19.084;2022-07-19T07:49:49;7.90;;;2.80;;
68108;SDS011;54893;49.864;19.084;2022-07-19T07:54:50;7.00;;;2.75;;
68108;SDS011;54893;49.864;19.084;2022-07-19T07:59:52;4.80;;;2.50;;
68108;SDS011;54893;49.864;19.084;2022-07-19T08:04:53;6.07;;;2.73;;
68108;SDS011;54893;49.864;19.084;2022-07-19T08:09:53;9.33;;;2.93;;
68108;SDS011;54893;49.864;19.084;2022-07-19T08:14:53;8.93;;;3.20;;
68108;SDS011;54893;49.864;19.084;2022-07-19T08:19:54;6.27;;;2.80;;
68108;SDS011;54893;49.864;19.084;2022-07-19T08:24:54;6.77;;;2.63;;
68108;SDS011;54893;49.864;19.084;2022-07-19T08:29:55;8.40;;;2.70;;
68108;SDS011;54893;49.864;19.084;2022-07-19T08:34:55;5.97;;;2.37;;
68108;SDS011;54893;49.864;19.084;2022-07-19T08:39:56;6.22;;;2.45;;
68108;SDS011;54893;49.864;19.084;2022-07-19T08:44:57;8.10;;;2.60;;
68108;SDS011;54893;49.864;19.084;2022-07-19T08:50:02;4.60;;;2.03;;
68108;SDS011;54893;49.864;19.084;2022-07-19T08:55:04;4.50;;;2.15;;
68108;SDS011;54893;49.864;19.084;2022-07-19T09:00:05;4.05;;;1.83;;
68108;SDS011;54893;49.864;19.084;2022-07-19T09:05:07;10.77;;;2.00;;
68108;SDS011;54893;49.864;19.084;2022-07-19T09:10:13;5.93;;;2.00;;
68108;SDS011;54893;49.864;19.084;2022-07-19T09:15:18;4.97;;;2.10;;
68108;SDS011;54893;49.864;19.084;2022-07-19T09:20:25;4.07;;;1.83;;
68108;SDS011;54893;49.864;19.084;2022-07-19T09:31:00;7.47;;;2.38;;
68108;SDS011;54893;49.864;19.084;2022-07-19T09:36:03;4.40;;;2.03;;
68108;SDS011;54893;49.864;19.084;2022-07-19T09:41:13;6.25;;;2.28;;
68108;SDS011;54893;49.864;19.084;2022-07-19T09:51:38;7.28;;;2.70;;
68108;SDS011;54893;49.864;19.084;2022-07-19T09:56:47;6.35;;;2.50;;
68108;SDS011;54893;49.864;19.084;2022-07-19T10:01:51;6.77;;;2.40;;
68108;SDS011;54893;49.864;19.084;2022-07-19T10:06:52;10.63;;;2.95;;
68108;SDS011;54893;49.864;19.084;2022-07-19T10:11:54;8.23;;;2.70;;
68108;SDS011;54893;49.864;19.084;2022-07-19T10:16:58;7.85;;;2.67;;
68108;SDS011;54893;49.864;19.084;2022-07-19T10:22:18;7.38;;;2.65;;
68108;SDS011;54893;49.864;19.084;2022-07-19T10:32:28;6.70;;;3.33;;
68108;SDS011;54893;49.864;19.084;2022-07-19T10:37:38;6.63;;;2.57;;
68108;SDS011;54893;49.864;19.084;2022-07-19T10:43:02;6.40;;;2.72;;
68108;SDS011;54893;49.864;19.084;2022-07-19T10:48:06;5.82;;;2.90;;
68108;SDS011;54893;49.864;19.084;2022-07-19T10:53:08;5.50;;;2.93;;
68108;SDS011;54893;49.864;19.084;2022-07-19T10:58:10;7.37;;;2.90;;
68108;SDS011;54893;49.864;19.084;2022-07-19T11:13:37;7.93;;;2.80;;
68108;SDS011;54893;49.864;19.084;2022-07-19T11:18:39;5.95;;;2.70;;
68108;SDS011;54893;49.864;19.084;2022-07-19T11:23:41;6.43;;;2.30;;
68108;SDS011;54893;49.864;19.084;2022-07-19T11:28:44;6.07;;;2.45;;
68108;SDS011;54893;49.864;19.084;2022-07-19T11:33:46;5.17;;;2.30;;
68108;SDS011;54893;49.864;19.084;2022-07-19T11:38:50;5.47;;;2.40;;
68108;SDS011;54893;49.864;19.084;2022-07-19T11:49:02;4.50;;;2.27;;
68108;SDS011;54893;49.864;19.084;2022-07-19T11:54:04;5.50;;;2.40;;
68108;SDS011;54893;49.864;19.084;2022-07-19T11:59:06;5.23;;;2.13;;
68108;SDS011;54893;49.864;19.084;2022-07-19T12:04:09;5.05;;;2.25;;
68108;SDS011;54893;49.864;19.084;2022-07-19T12:09:30;4.80;;;2.38;;
68108;SDS011;54893;49.864;19.084;2022-07-19T12:14:34;4.33;;;2.20;;
68108;SDS011;54893;49.864;19.084;2022-07-19T12:19:34;5.23;;;2.33;;
68108;SDS011;54893;49.864;19.084;2022-07-19T12:24:43;6.00;;;2.60;;
68108;SDS011;54893;49.864;19.084;2022-07-19T12:29:46;8.10;;;2.50;;
68108;SDS011;54893;49.864;19.084;2022-07-19T12:34:51;7.07;;;2.35;;
68108;SDS011;54893;49.864;19.084;2022-07-19T12:40:09;5.80;;;2.50;;
68108;SDS011;54893;49.864;19.084;2022-07-19T12:45:15;9.48;;;2.70;;
68108;SDS011;54893;49.864;19.084;2022-07-19T12:50:21;5.03;;;2.30;;
68108;SDS011;54893;49.864;19.084;2022-07-19T12:55:27;4.37;;;2.27;;
68108;SDS011;54893;49.864;19.084;2022-07-19T13:00:29;4.75;;;2.30;;
68108;SDS011;54893;49.864;19.084;2022-07-19T13:05:32;7.47;;;2.50;;
68108;SDS011;54893;49.864;19.084;2022-07-19T13:10:33;5.95;;;2.20;;
68108;SDS011;54893;49.864;19.084;2022-07-19T13:15:33;4.20;;;2.37;;
68108;SDS011;54893;49.864;19.084;2022-07-19T13:20:34;6.77;;;2.37;;
68108;SDS011;54893;49.864;19.084;2022-07-19T13:25:34;7.87;;;2.30;;
68108;SDS011;54893;49.864;19.084;2022-07-19T13:30:34;7.20;;;2.40;;
68108;SDS011;54893;49.864;19.084;2022-07-19T13:35:35;4.25;;;2.25;;
68108;SDS011;54893;49.864;19.084;2022-07-19T13:40:36;6.13;;;2.20;;
68108;SDS011;54893;49.864;19.084;2022-07-19T13:45:38;5.22;;;2.20;;
68108;SDS011;54893;49.864;19.084;2022-07-19T13:50:39;8.17;;;2.37;;
68108;SDS011;54893;49.864;19.084;2022-07-19T13:55:39;7.90;;;2.63;;
68108;SDS011;54893;49.864;19.084;2022-07-19T14:00:41;7.63;;;2.53;;
68108;SDS011;54893;49.864;19.084;2022-07-19T14:05:41;5.75;;;2.42;;
68108;SDS011;54893;49.864;19.084;2022-07-19T14:10:42;6.80;;;2.30;;
68108;SDS011;54893;49.864;19.084;2022-07-19T14:15:43;3.80;;;2.10;;
68108;SDS011;54893;49.864;19.084;2022-07-19T14:20:43;4.75;;;2.40;;
68108;SDS011;54893;49.864;19.084;2022-07-19T14:25:44;5.87;;;2.47;;
68108;SDS011;54893;49.864;19.084;2022-07-19T14:30:44;5.97;;;2.63;;
68108;SDS011;54893;49.864;19.084;2022-07-19T14:35:45;5.83;;;2.90;;
68108;SDS011;54893;49.864;19.084;2022-07-19T14:40:46;8.53;;;2.70;;
68108;SDS011;54893;49.864;19.084;2022-07-19T14:45:46;7.00;;;3.00;;
68108;SDS011;54893;49.864;19.084;2022-07-19T14:50:47;7.27;;;3.00;;
68108;SDS011;54893;49.864;19.084;2022-07-19T14:55:47;7.00;;;2.77;;
68108;SDS011;54893;49.864;19.084;2022-07-19T15:00:47;6.47;;;3.30;;
68108;SDS011;54893;49.864;19.084;2022-07-19T15:05:48;5.43;;;2.73;;
68108;SDS011;54893;49.864;19.084;2022-07-19T15:10:48;5.30;;;3.00;;
68108;SDS011;54893;49.864;19.084;2022-07-19T15:15:49;5.23;;;3.00;;
68108;SDS011;54893;49.864;19.084;2022-07-19T15:20:49;7.03;;;3.17;;
68108;SDS011;54893;49.864;19.084;2022-07-19T15:25:49;5.20;;;3.10;;
68108;SDS011;54893;49.864;19.084;2022-07-19T15:30:50;6.93;;;3.27;;
68108;SDS011;54893;49.864;19.084;2022-07-19T15:35:50;6.33;;;3.20;;
68108;SDS011;54893;49.864;19.084;2022-07-19T15:40:50;5.67;;;3.20;;
68108;SDS011;54893;49.864;19.084;2022-07-19T15:45:51;4.17;;;2.77;;
68108;SDS011;54893;49.864;19.084;2022-07-19T15:50:51;5.17;;;3.33;;
68108;SDS011;54893;49.864;19.084;2022-07-19T15:55:51;6.47;;;3.30;;
68108;SDS011;54893;49.864;19.084;2022-07-19T16:00:52;7.13;;;3.50;;
68108;SDS011;54893;49.864;19.084;2022-07-19T16:05:53;5.27;;;3.27;;
68108;SDS011;54893;49.864;19.084;2022-07-19T16:10:53;4.20;;;3.17;;
68108;SDS011;54893;49.864;19.084;2022-07-19T16:15:54;7.27;;;3.50;;
68108;SDS011;54893;49.864;19.084;2022-07-19T16:20:54;5.93;;;3.30;;
68108;SDS011;54893;49.864;19.084;2022-07-19T16:25:55;4.90;;;3.40;;
68108;SDS011;54893;49.864;19.084;2022-07-19T16:30:55;6.60;;;3.67;;
68108;SDS011;54893;49.864;19.084;2022-07-19T16:35:56;8.83;;;4.40;;
68108;SDS011;54893;49.864;19.084;2022-07-19T16:40:56;7.27;;;3.60;;
68108;SDS011;54893;49.864;19.084;2022-07-19T16:45:57;5.03;;;3.77;;
68108;SDS011;54893;49.864;19.084;2022-07-19T16:50:57;5.72;;;3.72;;
68108;SDS011;54893;49.864;19.084;2022-07-19T16:55:57;6.90;;;4.20;;
68108;SDS011;54893;49.864;19.084;2022-07-19T17:00:58;5.23;;;3.50;;
68108;SDS011;54893;49.864;19.084;2022-07-19T17:05:58;5.40;;;3.70;;
68108;SDS011;54893;49.864;19.084;2022-07-19T17:10:58;6.03;;;3.63;;
68108;SDS011;54893;49.864;19.084;2022-07-19T17:15:59;6.03;;;4.20;;
68108;SDS011;54893;49.864;19.084;2022-07-19T17:20:59;6.53;;;3.77;;
68108;SDS011;54893;49.864;19.084;2022-07-19T17:26:00;7.40;;;3.80;;
68108;SDS011;54893;49.864;19.084;2022-07-19T17:31:00;8.27;;;3.90;;
68108;SDS011;54893;49.864;19.084;2022-07-19T17:36:00;7.60;;;4.17;;
68108;SDS011;54893;49.864;19.084;2022-07-19T17:41:01;7.40;;;3.53;;
68108;SDS011;54893;49.864;19.084;2022-07-19T17:46:02;9.30;;;3.90;;
68108;SDS011;54893;49.864;19.084;2022-07-19T17:51:03;6.57;;;3.13;;
68108;SDS011;54893;49.864;19.084;2022-07-19T17:56:04;5.63;;;3.57;;
68108;SDS011;54893;49.864;19.084;2022-07-19T18:01:04;20.77;;;4.27;;
68108;SDS011;54893;49.864;19.084;2022-07-19T18:06:05;19.83;;;4.17;;
68108;SDS011;54893;49.864;19.084;2022-07-19T18:11:06;11.90;;;3.55;;
68108;SDS011;54893;49.864;19.084;2022-07-19T18:16:07;9.00;;;3.80;;
68108;SDS011;54893;49.864;19.084;2022-07-19T18:21:09;17.58;;;4.97;;
68108;SDS011;54893;49.864;19.084;2022-07-19T18:26:09;10.27;;;4.00;;
68108;SDS011;54893;49.864;19.084;2022-07-19T18:31:09;8.50;;;4.43;;
68108;SDS011;54893;49.864;19.084;2022-07-19T18:36:11;7.90;;;4.55;;
68108;SDS011;54893;49.864;19.084;2022-07-19T18:41:12;8.80;;;3.83;;
68108;SDS011;54893;49.864;19.084;2022-07-19T18:46:12;9.30;;;3.97;;
68108;SDS011;54893;49.864;19.084;2022-07-19T18:51:12;8.57;;;4.23;;
68108;SDS011;54893;49.864;19.084;2022-07-19T18:56:15;11.52;;;4.47;;
68108;SDS011;54893;49.864;19.084;2022-07-19T19:01:15;9.70;;;3.90;;
68108;SDS011;54893;49.864;19.084;2022-07-19T19:06:16;8.33;;;4.03;;
68108;SDS011;54893;49.864;19.084;2022-07-19T19:11:16;9.23;;;4.97;;
68108;SDS011;54893;49.864;19.084;2022-07-19T19:16:17;8.50;;;3.80;;
68108;SDS011;54893;49.864;19.084;2022-07-19T19:21:17;8.80;;;3.93;;
68108;SDS011;54893;49.864;19.084;2022-07-19T19:26:17;10.87;;;4.40;;
68108;SDS011;54893;49.864;19.084;2022-07-19T19:31:18;11.30;;;4.45;;
68108;SDS011;54893;49.864;19.084;2022-07-19T19:36:19;11.43;;;4.30;;
68108;SDS011;54893;49.864;19.084;2022-07-19T19:41:20;10.20;;;4.13;;
68108;SDS011;54893;49.864;19.084;2022-07-19T19:46:23;8.25;;;4.30;;
68108;SDS011;54893;49.864;19.084;2022-07-19T19:51:23;12.00;;;4.63;;
68108;SDS011;54893;49.864;19.084;2022-07-19T19:56:23;9.85;;;4.95;;
68108;SDS011;54893;49.864;19.084;2022-07-19T20:01:24;9.23;;;4.43;;
68108;SDS011;54893;49.864;19.084;2022-07-19T20:06:24;8.30;;;4.40;;
68108;SDS011;54893;49.864;19.084;2022-07-19T20:11:25;7.28;;;3.95;;
68108;SDS011;54893;49.864;19.084;2022-07-19T20:16:26;11.80;;;4.00;;
68108;SDS011;54893;49.864;19.084;2022-07-19T20:21:26;8.73;;;3.83;;
68108;SDS011;54893;49.864;19.084;2022-07-19T20:26:27;7.23;;;3.50;;
68108;SDS011;54893;49.864;19.084;2022-07-19T20:31:27;7.13;;;3.30;;
68108;SDS011;54893;49.864;19.084;2022-07-19T20:36:28;8.87;;;3.30;;
68108;SDS011;54893;49.864;19.084;2022-07-19T20:41:29;7.40;;;3.30;;
68108;SDS011;54893;49.864;19.084;2022-07-19T20:46:29;7.70;;;3.20;;
68108;SDS011;54893;49.864;19.084;2022-07-19T20:51:29;6.68;;;3.20;;
68108;SDS011;54893;49.864;19.084;2022-07-19T20:56:31;10.70;;;3.38;;
68108;SDS011;54893;49.864;19.084;2022-07-19T21:01:31;7.00;;;3.30;;
68108;SDS011;54893;49.864;19.084;2022-07-19T21:06:32;9.13;;;3.40;;
68108;SDS011;54893;49.864;19.084;2022-07-19T21:11:33;7.13;;;3.30;;
68108;SDS011;54893;49.864;19.084;2022-07-19T21:16:33;7.83;;;3.10;;
68108;SDS011;54893;49.864;19.084;2022-07-19T21:21:33;7.73;;;3.60;;
68108;SDS011;54893;49.864;19.084;2022-07-19T21:26:34;9.20;;;3.77;;
68108;SDS011;54893;49.864;19.084;2022-07-19T21:31:34;6.10;;;3.57;;
68108;SDS011;54893;49.864;19.084;2022-07-19T21:36:35;8.87;;;3.80;;
68108;SDS011;54893;49.864;19.084;2022-07-19T21:41:38;7.88;;;3.75;;
68108;SDS011;54893;49.864;19.084;2022-07-19T21:46:39;9.63;;;3.97;;
68108;SDS011;54893;49.864;19.084;2022-07-19T21:51:39;10.03;;;3.83;;
68108;SDS011;54893;49.864;19.084;2022-07-19T21:56:40;8.57;;;3.60;;
68108;SDS011;54893;49.864;19.084;2022-07-19T22:01:40;8.37;;;4.20;;
68108;SDS011;54893;49.864;19.084;2022-07-19T22:06:41;8.73;;;4.27;;
68108;SDS011;54893;49.864;19.084;2022-07-19T22:11:41;11.30;;;3.97;;
68108;SDS011;54893;49.864;19.084;2022-07-19T22:16:41;10.00;;;3.93;;
68108;SDS011;54893;49.864;19.084;2022-07-19T22:21:42;9.23;;;4.60;;
68108;SDS011;54893;49.864;19.084;2022-07-19T22:26:42;10.07;;;4.70;;
68108;SDS011;54893;49.864;19.084;2022-07-19T22:31:42;10.37;;;4.30;;
68108;SDS011;54893;49.864;19.084;2022-07-19T22:36:43;10.90;;;4.23;;
68108;SDS011;54893;49.864;19.084;2022-07-19T22:41:43;9.43;;;4.53;;
68108;SDS011;54893;49.864;19.084;2022-07-19T22:46:43;8.13;;;4.40;;
68108;SDS011;54893;49.864;19.084;2022-07-19T22:51:44;10.07;;;4.63;;
68108;SDS011;54893;49.864;19.084;2022-07-19T22:56:44;7.63;;;4.10;;
68108;SDS011;54893;49.864;19.084;2022-07-19T23:01:44;11.13;;;4.90;;
68108;SDS011;54893;49.864;19.084;2022-07-19T23:06:45;9.77;;;4.63;;
68108;SDS011;54893;49.864;19.084;2022-07-19T23:11:45;11.67;;;4.70;;
68108;SDS011;54893;49.864;19.084;2022-07-19T23:16:46;11.07;;;4.80;;
68108;SDS011;54893;49.864;19.084;2022-07-19T23:21:46;7.83;;;4.10;;
68108;SDS011;54893;49.864;19.084;2022-07-19T23:26:48;10.15;;;4.50;;
68108;SDS011;54893;49.864;19.084;2022-07-19T23:31:48;9.90;;;4.20;;
68108;SDS011;54893;49.864;19.084;2022-07-19T23:36:48;10.10;;;4.53;;
68108;SDS011;54893;49.864;19.084;2022-07-19T23:41:49;8.67;;;4.13;;
68108;SDS011;54893;49.864;19.084;2022-07-19T23:46:49;7.50;;;3.90;;
68108;SDS011;54893;49.864;19.084;2022-07-19T23:51:50;9.55;;;4.00;;
68108;SDS011;54893;49.864;19.084;2022-07-19T23:56:50;8.40;;;4.10;;
